sensor_id;sensor_type;location;lat;lon;timestamp;temperature;humidity
4201;DHT22;2114;50.398;8.814;2022-10-04T00:05:39;8.50;99.90
4201;DHT22;2114;50.398;8.814;2022-10-04T00:10:40;8.50;99.90
4201;DHT22;2114;50.398;8.814;2022-10-04T00:15:40;8.40;99.90
4201;DHT22;2114;50.398;8.814;2022-10-04T00:25:51;8.30;99.90
4201;DHT22;2114;50.398;8.814;2022-10-04T00:41:25;8.20;99.90
4201;DHT22;2114;50.398;8.814;2022-10-04T00:46:28;8.10;99.90
4201;DHT22;2114;50.398;8.814;2022-10-04T01:01:53;8.10;99.90
4201;DHT22;2114;50.398;8.814;2022-10-04T01:06:58;8.10;99.90
4201;DHT22;2114;50.398;8.814;2022-10-04T01:12:09;8.00;99.90
4201;DHT22;2114;50.398;8.814;2022-10-04T01:17:12;8.00;99.90
4201;DHT22;2114;50.398;8.814;2022-10-04T01:22:29;8.00;99.90
4201;DHT22;2114;50.398;8.814;2022-10-04T01:27:33;8.00;99.90
4201;DHT22;2114;50.398;8.814;2022-10-04T01:32:35;8.00;99.90
4201;DHT22;2114;50.398;8.814;2022-10-04T01:37:37;8.00;99.90
4201;DHT22;2114;50.398;8.814;2022-10-04T01:42:43;8.00;99.90
4201;DHT22;2114;50.398;8.814;2022-10-04T01:47:55;8.00;99.90
4201;DHT22;2114;50.398;8.814;2022-10-04T01:53:26;8.00;99.90
4201;DHT22;2114;50.398;8.814;2022-10-04T01:58:30;8.00;99.90
4201;DHT22;2114;50.398;8.814;2022-10-04T02:09:12;7.80;99.90
4201;DHT22;2114;50.398;8.814;2022-10-04T02:14:16;7.70;99.90
4201;DHT22;2114;50.398;8.814;2022-10-04T02:19:22;7.70;99.90
4201;DHT22;2114;50.398;8.814;2022-10-04T02:24:24;7.70;99.90
4201;DHT22;2114;50.398;8.814;2022-10-04T02:29:25;7.70;99.90
4201;DHT22;2114;50.398;8.814;2022-10-04T02:34:26;7.80;99.90
4201;DHT22;2114;50.398;8.814;2022-10-04T02:39:35;7.80;99.90
4201;DHT22;2114;50.398;8.814;2022-10-04T02:44:44;7.70;99.90
4201;DHT22;2114;50.398;8.814;2022-10-04T02:50:07;7.70;99.90
4201;DHT22;2114;50.398;8.814;2022-10-04T02:55:17;7.70;99.90
4201;DHT22;2114;50.398;8.814;2022-10-04T03:00:28;7.70;99.90
4201;DHT22;2114;50.398;8.814;2022-10-04T03:05:29;7.70;99.90
4201;DHT22;2114;50.398;8.814;2022-10-04T03:10:30;7.70;99.90
4201;DHT22;2114;50.398;8.814;2022-10-04T03:15:31;7.70;99.90
4201;DHT22;2114;50.398;8.814;2022-10-04T03:20:36;7.70;99.90
4201;DHT22;2114;50.398;8.814;2022-10-04T03:25:56;7.80;99.90
4201;DHT22;2114;50.398;8.814;2022-10-04T03:30:59;7.80;99.90
4201;DHT22;2114;50.398;8.814;2022-10-04T03:36:00;7.80;99.90
4201;DHT22;2114;50.398;8.814;2022-10-04T03:41:01;7.90;99.90
4201;DHT22;2114;50.398;8.814;2022-10-04T03:46:03;7.90;99.90
4201;DHT22;2114;50.398;8.814;2022-10-04T03:51:09;7.90;99.90
4201;DHT22;2114;50.398;8.814;2022-10-04T03:56:20;7.90;99.90
4201;DHT22;2114;50.398;8.814;2022-10-04T04:01:25;8.00;99.90
4201;DHT22;2114;50.398;8.814;2022-10-04T04:06:44;8.00;99.90
4201;DHT22;2114;50.398;8.814;2022-10-04T04:11:49;8.10;99.90
4201;DHT22;2114;50.398;8.814;2022-10-04T04:16:52;8.10;99.90
4201;DHT22;2114;50.398;8.814;2022-10-04T04:21:53;8.10;99.90
4201;DHT22;2114;50.398;8.814;2022-10-04T04:26:59;8.10;99.90
4201;DHT22;2114;50.398;8.814;2022-10-04T04:32:24;8.00;99.90
4201;DHT22;2114;50.398;8.814;2022-10-04T04:37:25;8.00;99.90
4201;DHT22;2114;50.398;8.814;2022-10-04T04:42:33;8.00;99.90
4201;DHT22;2114;50.398;8.814;2022-10-04T04:47:42;8.00;99.90
4201;DHT22;2114;50.398;8.814;2022-10-04T04:53:06;8.00;99.90
4201;DHT22;2114;50.398;8.814;2022-10-04T04:58:16;8.10;99.90
4201;DHT22;2114;50.398;8.814;2022-10-04T05:03:20;8.10;99.90
4201;DHT22;2114;50.398;8.814;2022-10-04T05:08:25;8.10;99.90
4201;DHT22;2114;50.398;8.814;2022-10-04T05:13:41;8.20;99.90
4201;DHT22;2114;50.398;8.814;2022-10-04T05:18:44;8.20;99.90
4201;DHT22;2114;50.398;8.814;2022-10-04T05:23:45;8.20;99.90
4201;DHT22;2114;50.398;8.814;2022-10-04T05:28:46;8.20;99.90
4201;DHT22;2114;50.398;8.814;2022-10-04T05:44:23;8.30;99.90
4201;DHT22;2114;50.398;8.814;2022-10-04T05:54:33;8.40;99.90
4201;DHT22;2114;50.398;8.814;2022-10-04T06:05:03;8.30;99.90
4201;DHT22;2114;50.398;8.814;2022-10-04T06:21:19;8.50;99.90
4201;DHT22;2114;50.398;8.814;2022-10-04T06:26:24;8.60;99.90
4201;DHT22;2114;50.398;8.814;2022-10-04T06:31:41;8.70;99.90
4201;DHT22;2114;50.398;8.814;2022-10-04T06:58:30;8.90;99.90
4201;DHT22;2114;50.398;8.814;2022-10-04T07:03:40;8.90;99.90
4201;DHT22;2114;50.398;8.814;2022-10-04T07:08:52;9.00;99.90
4201;DHT22;2114;50.398;8.814;2022-10-04T07:24:23;9.20;99.90
4201;DHT22;2114;50.398;8.814;2022-10-04T07:29:32;9.30;99.90
4201;DHT22;2114;50.398;8.814;2022-10-04T07:34:41;9.40;99.90
4201;DHT22;2114;50.398;8.814;2022-10-04T07:40:17;9.70;99.90
4201;DHT22;2114;50.398;8.814;2022-10-04T07:45:39;10.00;99.90
4201;DHT22;2114;50.398;8.814;2022-10-04T07:51:02;10.30;99.90
4201;DHT22;2114;50.398;8.814;2022-10-04T07:56:12;10.60;99.90
4201;DHT22;2114;50.398;8.814;2022-10-04T08:06:53;11.10;99.90
4201;DHT22;2114;50.398;8.814;2022-10-04T08:12:42;11.40;99.90
4201;DHT22;2114;50.398;8.814;2022-10-04T08:49:46;12.90;99.90
4201;DHT22;2114;50.398;8.814;2022-10-04T08:55:28;13.10;99.90
4201;DHT22;2114;50.398;8.814;2022-10-04T09:16:51;13.00;99.90
4201;DHT22;2114;50.398;8.814;2022-10-04T09:32:36;13.30;99.90
4201;DHT22;2114;50.398;8.814;2022-10-04T09:37:58;13.60;99.90
4201;DHT22;2114;50.398;8.814;2022-10-04T09:54:14;14.10;99.90
4201;DHT22;2114;50.398;8.814;2022-10-04T09:59:56;14.40;99.90
4201;DHT22;2114;50.398;8.814;2022-10-04T10:16:32;16.20;99.90
4201;DHT22;2114;50.398;8.814;2022-10-04T10:26:43;17.10;99.90
4201;DHT22;2114;50.398;8.814;2022-10-04T10:37:15;18.10;99.90
4201;DHT22;2114;50.398;8.814;2022-10-04T10:42:42;18.50;99.90
4201;DHT22;2114;50.398;8.814;2022-10-04T11:04:09;20.20;99.90
4201;DHT22;2114;50.398;8.814;2022-10-04T11:09:28;20.60;99.90
4201;DHT22;2114;50.398;8.814;2022-10-04T11:41:50;20.70;99.90
4201;DHT22;2114;50.398;8.814;2022-10-04T12:03:58;21.00;99.90
4201;DHT22;2114;50.398;8.814;2022-10-04T12:14:22;20.10;99.90
4201;DHT22;2114;50.398;8.814;2022-10-04T13:19:02;20.20;99.90
4201;DHT22;2114;50.398;8.814;2022-10-04T13:24:24;19.90;99.90
4201;DHT22;2114;50.398;8.814;2022-10-04T13:29:32;19.90;99.90
4201;DHT22;2114;50.398;8.814;2022-10-04T13:50:28;19.80;99.90
4201;DHT22;2114;50.398;8.814;2022-10-04T13:55:54;19.20;99.90
4201;DHT22;2114;50.398;8.814;2022-10-04T14:12:52;18.10;99.90
4201;DHT22;2114;50.398;8.814;2022-10-04T14:28:56;17.60;99.90
4201;DHT22;2114;50.398;8.814;2022-10-04T14:45:06;17.30;99.90
4201;DHT22;2114;50.398;8.814;2022-10-04T15:16:47;17.20;99.90
4201;DHT22;2114;50.398;8.814;2022-10-04T15:27:34;17.10;99.90
4201;DHT22;2114;50.398;8.814;2022-10-04T15:38:32;17.10;99.90
4201;DHT22;2114;50.398;8.814;2022-10-04T15:54:13;17.00;99.90
4201;DHT22;2114;50.398;8.814;2022-10-04T15:59:35;16.80;99.90
4201;DHT22;2114;50.398;8.814;2022-10-04T16:15:39;16.20;99.90
4201;DHT22;2114;50.398;8.814;2022-10-04T16:21:09;16.00;99.90
4201;DHT22;2114;50.398;8.814;2022-10-04T16:41:51;15.20;99.90
4201;DHT22;2114;50.398;8.814;2022-10-04T16:46:54;15.00;99.90
4201;DHT22;2114;50.398;8.814;2022-10-04T16:57:31;14.80;99.90
4201;DHT22;2114;50.398;8.814;2022-10-04T17:08:14;14.70;99.90
4201;DHT22;2114;50.398;8.814;2022-10-04T17:13:31;14.60;99.90
4201;DHT22;2114;50.398;8.814;2022-10-04T17:18:50;14.50;99.90
4201;DHT22;2114;50.398;8.814;2022-10-04T17:29:39;14.30;99.90
4201;DHT22;2114;50.398;8.814;2022-10-04T17:45:30;13.90;99.90
4201;DHT22;2114;50.398;8.814;2022-10-04T17:56:44;13.80;99.90
4201;DHT22;2114;50.398;8.814;2022-10-04T18:01:53;13.70;99.90
4201;DHT22;2114;50.398;8.814;2022-10-04T18:07:38;13.70;99.90
4201;DHT22;2114;50.398;8.814;2022-10-04T18:12:51;13.60;99.90
4201;DHT22;2114;50.398;8.814;2022-10-04T18:18:17;13.50;99.90
4201;DHT22;2114;50.398;8.814;2022-10-04T18:23:27;13.40;99.90
4201;DHT22;2114;50.398;8.814;2022-10-04T18:28:28;13.30;99.90
4201;DHT22;2114;50.398;8.814;2022-10-04T18:33:50;13.30;99.90
4201;DHT22;2114;50.398;8.814;2022-10-04T18:39:15;13.20;99.90
4201;DHT22;2114;50.398;8.814;2022-10-04T18:44:20;13.10;99.90
4201;DHT22;2114;50.398;8.814;2022-10-04T18:49:28;13.10;99.90
4201;DHT22;2114;50.398;8.814;2022-10-04T19:00:22;12.90;99.90
4201;DHT22;2114;50.398;8.814;2022-10-04T19:06:00;12.80;99.90
4201;DHT22;2114;50.398;8.814;2022-10-04T19:11:11;12.70;99.90
4201;DHT22;2114;50.398;8.814;2022-10-04T19:16:35;12.60;99.90
4201;DHT22;2114;50.398;8.814;2022-10-04T19:22:10;12.50;99.90
4201;DHT22;2114;50.398;8.814;2022-10-04T19:27:34;12.50;99.90
4201;DHT22;2114;50.398;8.814;2022-10-04T19:32:52;12.50;99.90
4201;DHT22;2114;50.398;8.814;2022-10-04T19:43:32;12.40;99.90
4201;DHT22;2114;50.398;8.814;2022-10-04T19:48:51;12.30;99.90
4201;DHT22;2114;50.398;8.814;2022-10-04T19:53:58;12.30;99.90
4201;DHT22;2114;50.398;8.814;2022-10-04T19:59:06;12.20;99.90
4201;DHT22;2114;50.398;8.814;2022-10-04T20:04:13;12.20;99.90
4201;DHT22;2114;50.398;8.814;2022-10-04T20:19:39;12.00;99.90
4201;DHT22;2114;50.398;8.814;2022-10-04T20:50:00;11.60;99.90
4201;DHT22;2114;50.398;8.814;2022-10-04T20:55:08;11.60;99.90
4201;DHT22;2114;50.398;8.814;2022-10-04T21:00:19;11.50;99.90
4201;DHT22;2114;50.398;8.814;2022-10-04T21:05:23;11.50;99.90
4201;DHT22;2114;50.398;8.814;2022-10-04T21:10:24;11.40;99.90
4201;DHT22;2114;50.398;8.814;2022-10-04T21:15:27;11.40;99.90
4201;DHT22;2114;50.398;8.814;2022-10-04T21:25:46;11.20;99.90
4201;DHT22;2114;50.398;8.814;2022-10-04T21:30:46;11.20;99.90
4201;DHT22;2114;50.398;8.814;2022-10-04T21:35:50;11.10;99.90
4201;DHT22;2114;50.398;8.814;2022-10-04T21:40:51;11.00;99.90
4201;DHT22;2114;50.398;8.814;2022-10-04T21:45:52;11.00;99.90
4201;DHT22;2114;50.398;8.814;2022-10-04T21:50:53;10.90;99.90
4201;DHT22;2114;50.398;8.814;2022-10-04T21:55:54;10.90;99.90
4201;DHT22;2114;50.398;8.814;2022-10-04T22:00:54;10.80;99.90
4201;DHT22;2114;50.398;8.814;2022-10-04T22:05:55;10.80;99.90
4201;DHT22;2114;50.398;8.814;2022-10-04T22:10:56;10.80;99.90
4201;DHT22;2114;50.398;8.814;2022-10-04T22:15:56;10.80;99.90
4201;DHT22;2114;50.398;8.814;2022-10-04T22:20:58;10.80;99.90
4201;DHT22;2114;50.398;8.814;2022-10-04T22:25:58;10.70;99.90
4201;DHT22;2114;50.398;8.814;2022-10-04T22:30:59;10.70;99.90
4201;DHT22;2114;50.398;8.814;2022-10-04T22:36:30;10.70;99.90
4201;DHT22;2114;50.398;8.814;2022-10-04T22:41:41;10.60;99.90
4201;DHT22;2114;50.398;8.814;2022-10-04T22:46:44;10.50;99.90
4201;DHT22;2114;50.398;8.814;2022-10-04T22:51:48;10.50;99.90
4201;DHT22;2114;50.398;8.814;2022-10-04T22:56:50;10.50;99.90
4201;DHT22;2114;50.398;8.814;2022-10-04T23:01:51;10.40;99.90
4201;DHT22;2114;50.398;8.814;2022-10-04T23:06:52;10.40;99.90
4201;DHT22;2114;50.398;8.814;2022-10-04T23:11:52;10.30;99.90
4201;DHT22;2114;50.398;8.814;2022-10-04T23:16:53;10.30;99.90
4201;DHT22;2114;50.398;8.814;2022-10-04T23:21:53;10.20;99.90
4201;DHT22;2114;50.398;8.814;2022-10-04T23:26:55;10.20;99.90
4201;DHT22;2114;50.398;8.814;2022-10-04T23:31:56;10.20;99.90
4201;DHT22;2114;50.398;8.814;2022-10-04T23:36:57;10.10;99.90
4201;DHT22;2114;50.398;8.814;2022-10-04T23:41:58;10.10;99.90
4201;DHT22;2114;50.398;8.814;2022-10-04T23:46:59;10.00;99.90
4201;DHT22;2114;50.398;8.814;2022-10-04T23:52:02;10.00;99.90
4201;DHT22;2114;50.398;8.814;2022-10-04T23:57:02;10.00;99.90
